Time;durP1;ratioP1;P1;durP2;ratioP2;P2;SDS_P1;SDS_P2;PMS_P1;PMS_P2;Temp;Humidity;BMP_temperature;BMP_pressure;BME280_temperature;BME280_humidity;BME280_pressure;Samples;Min_cycle;Max_cycle;Signal;HPM_P1;HPM_P2
2022/07/23 00:00:12;;;;;;;8.57;7.55;;;;;;;22.09;53.25;95148.31;5115808;28;20195;-67
2022/07/23 00:02:38;;;;;;;8.30;7.55;;;;;;;22.08;53.03;95157.16;5116667;28;20196;-67
2022/07/23 00:05:06;;;;;;;10.73;8.02;;;;;;;22.07;53.40;95153.53;5116353;28;20176;-67
2022/07/23 00:07:32;;;;;;;8.05;7.38;;;;;;;22.07;53.11;95149.94;5115544;28;20203;-67
2022/07/23 00:09:59;;;;;;;8.70;7.90;;;;;;;22.08;53.08;95152.34;5115619;28;20184;-67
2022/07/23 00:12:27;;;;;;;9.65;8.00;;;;;;;22.05;53.22;95163.63;5116219;28;20204;-67
2022/07/23 00:14:55;;;;;;;11.55;7.85;;;;;;;22.00;53.14;95164.09;5116506;28;20194;-67
2022/07/23 00:17:22;;;;;;;9.73;7.53;;;;;;;21.97;53.39;95165.75;5115694;28;20199;-67
2022/07/23 00:19:49;;;;;;;8.70;7.20;;;;;;;21.94;53.75;95160.19;5115605;28;20202;-67
2022/07/23 00:22:16;;;;;;;8.48;7.53;;;;;;;21.90;53.28;95165.88;5116460;28;20172;-67
2022/07/23 00:24:42;;;;;;;9.63;7.15;;;;;;;21.88;53.66;95169.06;5115473;28;20199;-67
2022/07/23 00:27:09;;;;;;;8.13;7.35;;;;;;;21.93;53.57;95167.00;5115915;28;20191;-67
2022/07/23 00:29:37;;;;;;;8.55;6.95;;;;;;;21.95;53.61;95162.56;5115950;28;20579;-66
2022/07/23 00:32:05;;;;;;;7.63;6.90;;;;;;;21.99;53.00;95165.31;5116032;28;20222;-67
2022/07/23 00:34:32;;;;;;;7.28;6.57;;;;;;;22.03;53.21;95164.03;5116187;28;20187;-67
2022/07/23 00:36:58;;;;;;;8.48;7.53;;;;;;;22.02;53.21;95167.28;5115014;28;20511;-67
2022/07/23 00:39:25;;;;;;;7.63;6.93;;;;;;;21.97;53.68;95162.13;5116423;28;20188;-67
2022/07/23 00:41:52;;;;;;;9.13;7.90;;;;;;;21.88;53.61;95168.28;5115509;28;20206;-67
2022/07/23 00:44:21;;;;;;;8.55;7.65;;;;;;;21.79;53.60;95168.03;5116047;28;20252;-67
2022/07/23 00:46:52;;;;;;;11.68;7.70;;;;;;;21.69;53.98;95166.97;5115084;28;20506;-67
2022/07/23 00:49:20;;;;;;;9.23;7.80;;;;;;;21.65;53.93;95168.25;5115564;28;20628;-67
2022/07/23 00:51:48;;;;;;;8.73;7.50;;;;;;;21.62;53.96;95175.47;5115532;28;20590;-67
2022/07/23 00:54:15;;;;;;;9.30;7.45;;;;;;;21.59;54.16;95165.09;5114743;28;20227;-68
2022/07/23 00:56:42;;;;;;;7.78;6.97;;;;;;;21.59;53.75;95165.09;5115909;28;20200;-67
2022/07/23 00:59:09;;;;;;;8.18;7.32;;;;;;;21.57;54.03;95165.53;5115423;28;20191;-67
2022/07/23 01:01:36;;;;;;;9.52;7.45;;;;;;;21.53;54.08;95163.97;5115874;28;20190;-67
2022/07/23 01:04:05;;;;;;;7.88;7.05;;;;;;;21.49;54.20;95166.81;5115138;28;20215;-67
2022/07/23 01:06:34;;;;;;;7.50;6.60;;;;;;;21.39;54.00;95164.97;5115635;28;20194;-67
2022/07/23 01:09:01;;;;;;;7.90;7.13;;;;;;;21.34;54.56;95152.19;5115740;28;20203;-67
2022/07/23 01:11:28;;;;;;;7.72;7.03;;;;;;;21.32;54.40;95165.03;5115466;28;20218;-67
2022/07/23 01:13:55;;;;;;;9.77;7.63;;;;;;;21.30;54.23;95162.63;5115271;28;20600;-67
2022/07/23 01:16:22;;;;;;;7.93;7.13;;;;;;;21.24;54.22;95163.53;5115002;28;20253;-67
2022/07/23 01:18:49;;;;;;;8.48;7.65;;;;;;;21.20;54.47;95157.94;5114635;28;20203;-67
2022/07/23 01:21:19;;;;;;;11.00;8.15;;;;;;;21.24;54.36;95157.91;5117521;28;20213;-67
2022/07/23 01:23:47;;;;;;;7.88;7.07;;;;;;;21.25;54.55;95160.31;5119813;28;20187;-67
2022/07/23 01:26:16;;;;;;;8.70;7.80;;;;;;;21.26;54.87;95161.09;5119707;28;20214;-67
2022/07/23 01:28:43;;;;;;;9.07;7.38;;;;;;;21.29;54.52;95157.47;5118612;28;20195;-67
2022/07/23 01:31:10;;;;;;;11.85;8.13;;;;;;;21.29;54.31;95160.25;5118754;28;20183;-67
2022/07/23 01:33:37;;;;;;;9.18;7.75;;;;;;;21.27;54.28;95154.28;5119220;28;20513;-67
2022/07/23 01:36:04;;;;;;;9.32;8.18;;;;;;;21.26;54.96;95152.69;5119579;28;20196;-67
2022/07/23 01:38:31;;;;;;;9.68;8.02;;;;;;;21.26;54.81;95156.28;5119288;28;20184;-67
2022/07/23 01:40:59;;;;;;;9.90;7.70;;;;;;;21.20;54.81;95154.34;5118682;28;20206;-67
2022/07/23 01:43:25;;;;;;;8.77;7.85;;;;;;;21.15;55.03;95152.81;5119453;28;20180;-67
2022/07/23 01:45:52;;;;;;;8.07;7.20;;;;;;;21.16;54.84;95155.19;5118376;28;20628;-67
2022/07/23 01:48:19;;;;;;;8.13;7.38;;;;;;;21.20;55.28;95157.94;5118376;28;20195;-67
2022/07/23 01:50:47;;;;;;;8.55;7.68;;;;;;;21.21;55.03;95155.97;5118369;28;20192;-67
2022/07/23 01:53:14;;;;;;;8.45;7.68;;;;;;;21.19;54.88;95156.38;5119128;28;20200;-67
2022/07/23 01:55:41;;;;;;;11.43;8.25;;;;;;;21.12;55.24;95157.25;5119423;28;20231;-67
2022/07/23 01:58:09;;;;;;;8.48;7.78;;;;;;;21.05;55.45;95157.34;5118908;28;20187;-67
2022/07/23 02:00:35;;;;;;;9.55;8.02;;;;;;;21.00;55.44;95154.22;5118782;28;20199;-67
2022/07/23 02:03:02;;;;;;;9.90;7.93;;;;;;;20.99;55.45;95161.84;5117675;28;20200;-67
2022/07/23 02:05:30;;;;;;;8.88;7.97;;;;;;;20.97;55.82;95161.44;5118913;28;20199;-67
2022/07/23 02:07:56;;;;;;;11.50;8.50;;;;;;;20.94;55.62;95158.69;5118018;28;20199;-67
2022/07/23 02:10:23;;;;;;;8.88;7.97;;;;;;;20.90;55.71;95156.72;5118526;28;20582;-67
2022/07/23 02:12:50;;;;;;;9.05;8.02;;;;;;;20.84;55.73;95158.41;5118363;28;20510;-67
2022/07/23 02:15:19;;;;;;;9.07;7.50;;;;;;;20.77;56.01;95155.66;5118194;28;20203;-67
2022/07/23 02:17:45;;;;;;;9.43;7.70;;;;;;;20.78;56.24;95151.66;5117827;28;20204;-67
2022/07/23 02:20:14;;;;;;;8.35;6.97;;;;;;;20.76;56.29;95162.47;5117902;28;20199;-67
2022/07/23 02:22:41;;;;;;;9.85;8.80;;;;;;;20.73;56.10;95159.69;5117505;28;20194;-68
2022/07/23 02:25:08;;;;;;;8.40;7.45;;;;;;;20.72;56.06;95150.50;5117569;28;20223;-67
2022/07/23 02:27:36;;;;;;;8.18;7.47;;;;;;;20.71;56.40;95162.16;5118186;28;20206;-67
2022/07/23 02:30:04;;;;;;;8.25;7.45;;;;;;;20.67;56.06;95150.97;5117731;28;20541;-67
2022/07/23 02:32:32;;;;;;;8.10;7.18;;;;;;;20.65;56.41;95159.00;5116655;28;20222;-67
2022/07/23 02:34:59;;;;;;;8.75;7.05;;;;;;;20.61;56.52;95153.41;5117932;28;20555;-66
2022/07/23 02:37:26;;;;;;;10.40;7.88;;;;;;;20.61;56.70;95158.22;5118828;28;20199;-67
2022/07/23 02:39:53;;;;;;;8.45;7.65;;;;;;;20.63;56.39;95153.81;5118492;28;20180;-67
2022/07/23 02:42:20;;;;;;;9.18;7.63;;;;;;;20.61;56.78;95156.22;5117874;28;20191;-67
2022/07/23 02:44:46;;;;;;;9.05;7.80;;;;;;;20.57;56.70;95160.28;5117225;28;20195;-67
2022/07/23 02:47:13;;;;;;;8.90;7.93;;;;;;;20.53;56.09;95163.13;5118225;28;20192;-67
2022/07/23 02:49:41;;;;;;;12.27;8.65;;;;;;;20.55;56.28;95163.50;5117755;28;20212;-67
2022/07/23 02:52:10;;;;;;;9.98;8.20;;;;;;;20.53;56.45;95171.53;5116828;28;20219;-67
2022/07/23 02:54:36;;;;;;;9.25;7.93;;;;;;;20.48;56.69;95176.72;5117569;28;20292;-68
2022/07/23 02:57:03;;;;;;;8.60;7.50;;;;;;;20.40;56.84;95174.00;5117888;28;20195;-67
2022/07/23 02:59:30;;;;;;;7.47;6.85;;;;;;;20.35;56.86;95179.25;5118346;28;20192;-67
2022/07/23 03:01:57;;;;;;;8.20;7.40;;;;;;;20.30;56.88;95177.72;5117746;28;20195;-67
2022/07/23 03:04:24;;;;;;;8.00;7.20;;;;;;;20.27;57.02;95178.53;5117825;28;20184;-67
2022/07/23 03:06:52;;;;;;;9.48;7.72;;;;;;;20.28;56.88;95179.31;5116958;28;20195;-67
2022/07/23 03:09:19;;;;;;;8.38;7.32;;;;;;;20.29;56.86;95190.09;5117761;28;20196;-67
2022/07/23 03:11:46;;;;;;;8.52;7.72;;;;;;;20.27;56.80;95191.75;5117753;28;20195;-67
2022/07/23 03:14:13;;;;;;;11.05;7.97;;;;;;;20.23;56.80;95191.78;5116552;28;20227;-67
2022/07/23 03:16:40;;;;;;;8.50;7.60;;;;;;;20.18;56.89;95186.59;5116778;28;20234;-67
2022/07/23 03:19:07;;;;;;;8.00;7.30;;;;;;;20.18;57.06;95193.00;5117445;28;20184;-67
2022/07/23 03:21:34;;;;;;;9.10;7.80;;;;;;;20.24;57.07;95201.75;5099713;28;20211;-67
2022/07/23 03:24:02;;;;;;;8.88;7.43;;;;;;;20.32;56.82;95208.88;5116718;28;20191;-67
2022/07/23 03:26:29;;;;;;;11.48;7.60;;;;;;;20.36;56.59;95203.25;5116552;28;20249;-67
2022/07/23 03:28:56;;;;;;;8.30;6.75;;;;;;;20.38;56.59;95201.63;5116068;28;20211;-66
2022/07/23 03:31:23;;;;;;;9.13;7.57;;;;;;;20.37;56.62;95210.44;5116862;28;20192;-67
2022/07/23 03:33:50;;;;;;;7.88;7.07;;;;;;;20.31;56.45;95212.09;5116584;28;20218;-67
2022/07/23 03:36:17;;;;;;;7.30;6.60;;;;;;;20.33;56.01;95206.88;5116103;28;20199;-66
2022/07/23 03:38:43;;;;;;;6.65;5.95;;;;;;;20.37;55.43;95207.63;5117203;28;20200;-66
2022/07/23 03:41:11;;;;;;;6.65;6.05;;;;;;;20.36;54.41;95208.84;5117339;28;20195;-68
2022/07/23 03:43:38;;;;;;;7.28;6.07;;;;;;;20.36;54.53;95214.47;5116167;28;20192;-66
2022/07/23 03:46:05;;;;;;;6.90;6.20;;;;;;;20.40;54.35;95215.22;5116312;28;20200;-67
2022/07/23 03:48:32;;;;;;;7.47;6.13;;;;;;;20.43;54.34;95211.59;5116474;28;20268;-66
2022/07/23 03:50:58;;;;;;;6.07;5.57;;;;;;;20.44;54.73;95207.56;5116829;28;20179;-66
2022/07/23 03:53:25;;;;;;;6.60;6.00;;;;;;;20.45;54.56;95203.59;5115823;28;20222;-67
2022/07/23 03:55:52;;;;;;;9.02;6.00;;;;;;;20.42;54.66;95202.41;5115492;28;20300;-67
2022/07/23 03:58:20;;;;;;;6.72;6.13;;;;;;;20.41;54.55;95208.44;5116869;28;20188;-66
2022/07/23 04:00:47;;;;;;;8.10;6.15;;;;;;;20.39;54.63;95211.63;5115802;28;20218;-66
2022/07/23 04:03:14;;;;;;;6.95;6.25;;;;;;;20.42;54.56;95213.59;5115427;28;20623;-66
2022/07/23 04:05:40;;;;;;;7.32;6.45;;;;;;;20.47;54.47;95208.75;5116341;28;20183;-66
2022/07/23 04:08:08;;;;;;;7.53;5.88;;;;;;;20.48;54.44;95210.34;5115942;28;20195;-67
2022/07/23 04:10:34;;;;;;;7.35;6.65;;;;;;;20.47;54.58;95214.38;5115689;28;20192;-69
2022/07/23 04:13:02;;;;;;;12.05;7.00;;;;;;;20.46;54.77;95212.78;5116327;28;20218;-69
2022/07/23 04:15:30;;;;;;;7.35;6.65;;;;;;;20.44;54.64;95205.59;5116185;28;20610;-69
2022/07/23 04:17:57;;;;;;;10.05;6.95;;;;;;;20.43;55.17;95211.59;5116494;28;20191;-69
2022/07/23 04:20:23;;;;;;;7.05;6.40;;;;;;;20.44;55.44;95218.78;5115474;28;20199;-69
2022/07/23 04:22:50;;;;;;;10.15;6.60;;;;;;;20.48;54.93;95225.19;5116255;28;20184;-69
2022/07/23 04:25:17;;;;;;;8.98;6.25;;;;;;;20.47;55.26;95217.97;5116097;28;20211;-69
2022/07/23 04:27:44;;;;;;;7.28;6.57;;;;;;;20.52;55.16;95225.19;5115337;28;20199;-69
2022/07/23 04:30:11;;;;;;;8.82;7.03;;;;;;;20.55;54.71;95222.34;5116271;28;20193;-69
2022/07/23 04:32:40;;;;;;;7.65;6.85;;;;;;;20.58;54.70;95226.31;5114973;28;20208;-68
2022/07/23 04:35:07;;;;;;;8.77;6.97;;;;;;;20.63;55.09;95223.06;5116100;28;20248;-69
2022/07/23 04:37:33;;;;;;;7.30;6.60;;;;;;;20.66;55.53;95222.22;5115113;28;20322;-68
2022/07/23 04:40:00;;;;;;;9.20;6.60;;;;;;;20.68;55.55;95219.81;5115733;28;20600;-68
2022/07/23 04:42:27;;;;;;;7.45;6.75;;;;;;;20.66;55.34;95234.25;5116050;28;20187;-69
2022/07/23 04:44:54;;;;;;;8.30;6.80;;;;;;;20.67;54.94;95233.03;5115944;28;20184;-69
2022/07/23 04:47:20;;;;;;;7.50;6.65;;;;;;;20.71;55.30;95227.41;5115201;28;20195;-69
2022/07/23 04:49:49;;;;;;;10.88;7.10;;;;;;;20.75;55.03;95230.16;5115852;28;20184;-69
2022/07/23 04:52:16;;;;;;;9.23;7.65;;;;;;;20.77;55.46;95234.16;5115889;28;20199;-69
2022/07/23 04:54:42;;;;;;;9.23;7.22;;;;;;;20.79;55.19;95228.13;5114810;28;20667;-69
2022/07/23 04:57:09;;;;;;;8.18;7.10;;;;;;;20.83;54.96;95229.66;5115706;28;20184;-69
2022/07/23 04:59:36;;;;;;;8.85;7.35;;;;;;;20.88;55.02;95237.63;5115445;28;20183;-69
2022/07/23 05:02:03;;;;;;;7.80;7.05;;;;;;;20.87;54.76;95232.44;5115052;28;20192;-70
2022/07/23 05:04:31;;;;;;;7.60;6.90;;;;;;;20.88;54.62;95229.22;5115688;28;20195;-69
2022/07/23 05:06:59;;;;;;;11.43;7.75;;;;;;;20.92;55.00;95230.00;5114456;28;20199;-68
2022/07/23 05:09:26;;;;;;;10.52;7.28;;;;;;;20.93;55.15;95233.59;5115771;28;20180;-69
2022/07/23 05:11:53;;;;;;;9.50;7.53;;;;;;;20.91;55.23;95231.22;5114810;28;20199;-68
2022/07/23 05:14:20;;;;;;;8.07;7.35;;;;;;;20.93;54.97;95225.16;5114721;28;20219;-69
2022/07/23 05:16:46;;;;;;;7.75;6.97;;;;;;;20.99;55.17;95233.91;5115315;28;20188;-71
2022/07/23 05:19:13;;;;;;;8.07;7.28;;;;;;;21.03;55.29;95238.28;5114370;28;20200;-67
2022/07/23 05:21:40;;;;;;;9.20;6.90;;;;;;;21.07;54.96;95232.63;5115208;28;20209;-64
2022/07/23 05:24:08;;;;;;;9.82;7.30;;;;;;;21.10;55.06;95235.41;5115439;28;20195;-64
2022/07/23 05:26:35;;;;;;;10.25;7.75;;;;;;;21.13;54.82;95236.56;5114221;28;20638;-66
2022/07/23 05:29:02;;;;;;;9.13;6.63;;;;;;;21.19;54.66;95231.31;5114524;28;20204;-69
2022/07/23 05:31:29;;;;;;;8.00;6.93;;;;;;;21.23;54.67;95235.66;5114257;28;20627;-69
2022/07/23 05:33:56;;;;;;;8.60;7.18;;;;;;;21.28;54.63;95235.22;5114905;28;20537;-69
2022/07/23 05:36:22;;;;;;;7.57;6.78;;;;;;;21.29;54.79;95239.59;5115479;28;20214;-69
2022/07/23 05:38:49;;;;;;;8.27;6.90;;;;;;;21.33;54.52;95237.56;5114536;28;20195;-69
2022/07/23 05:41:17;;;;;;;7.95;7.15;;;;;;;21.41;54.36;95237.50;5114457;28;20199;-72
2022/07/23 05:43:44;;;;;;;8.90;8.02;;;;;;;21.45;53.72;95236.22;5114620;28;20583;-69
2022/07/23 05:46:11;;;;;;;8.32;7.03;;;;;;;21.54;53.17;95235.72;5114735;28;20196;-70
2022/07/23 05:48:38;;;;;;;11.57;7.00;;;;;;;21.59;53.19;95232.44;5114104;28;20248;-70
2022/07/23 05:51:06;;;;;;;9.10;7.57;;;;;;;21.67;53.22;95235.97;5114289;28;20202;-69
2022/07/23 05:53:33;;;;;;;9.05;7.88;;;;;;;21.71;53.55;95239.50;5114287;28;20220;-68
2022/07/23 05:56:00;;;;;;;8.48;7.57;;;;;;;21.75;53.62;95240.25;5114659;28;20200;-67
2022/07/23 05:58:28;;;;;;;7.72;7.05;;;;;;;21.77;53.83;95238.63;5115008;28;20211;-67
2022/07/23 06:00:55;;;;;;;8.57;7.78;;;;;;;21.80;53.38;95240.59;5114646;28;20200;-70
2022/07/23 06:03:22;;;;;;;10.45;8.00;;;;;;;21.84;53.09;95238.53;5114316;28;20192;-68
2022/07/23 06:05:48;;;;;;;9.77;8.77;;;;;;;21.90;52.51;95238.06;5114245;28;20188;-67
2022/07/23 06:08:17;;;;;;;9.02;8.02;;;;;;;21.95;52.64;95231.97;5117661;28;20192;-67
2022/07/23 06:10:43;;;;;;;10.10;9.07;;;;;;;21.99;52.56;95227.09;5118621;28;20701;-67
2022/07/23 06:13:10;;;;;;;9.35;7.63;;;;;;;22.05;52.82;95233.84;5117741;28;20207;-67
2022/07/23 06:15:39;;;;;;;8.27;7.57;;;;;;;22.03;52.53;95236.25;5117812;28;20195;-67
2022/07/23 06:18:05;;;;;;;10.02;8.48;;;;;;;22.05;52.34;95233.84;5118609;28;20191;-67
2022/07/23 06:20:32;;;;;;;10.73;8.30;;;;;;;22.07;51.65;95225.75;5118647;28;20187;-67
2022/07/23 06:22:59;;;;;;;8.10;7.00;;;;;;;22.13;51.68;95235.31;5118538;28;20180;-68
2022/07/23 06:25:26;;;;;;;8.63;7.35;;;;;;;22.19;51.62;95232.88;5118646;28;20261;-67
2022/07/23 06:27:53;;;;;;;9.90;7.82;;;;;;;22.25;51.29;95229.13;5118217;28;20587;-68
2022/07/23 06:30:20;;;;;;;9.57;7.68;;;;;;;22.33;51.07;95227.00;5118638;28;20221;-67
2022/07/23 06:32:48;;;;;;;11.45;8.02;;;;;;;22.41;50.92;95227.72;5117596;28;20216;-67
2022/07/23 06:35:15;;;;;;;9.32;8.20;;;;;;;22.47;50.80;95223.97;5117047;28;20674;-67
2022/07/23 06:37:42;;;;;;;10.52;8.00;;;;;;;22.53;50.88;95230.69;5117871;28;20206;-67
2022/07/23 06:40:09;;;;;;;9.57;8.50;;;;;;;22.57;50.67;95220.19;5118311;28;20187;-67
2022/07/23 06:42:38;;;;;;;10.32;8.32;;;;;;;22.66;51.02;95230.06;5117979;28;20606;-67
2022/07/23 06:45:06;;;;;;;8.13;7.43;;;;;;;22.72;51.01;95225.56;5117179;28;20306;-67
2022/07/23 06:47:33;;;;;;;9.48;8.10;;;;;;;22.78;50.46;95229.47;5117851;28;20551;-67
2022/07/23 06:50:01;;;;;;;11.82;8.05;;;;;;;22.82;49.82;95224.59;5116883;28;20195;-67
2022/07/23 06:52:28;;;;;;;8.00;7.20;;;;;;;22.87;49.88;95226.91;5117310;28;20191;-67
2022/07/23 06:54:55;;;;;;;9.75;7.50;;;;;;;22.93;49.92;95221.63;5117644;28;20236;-67
2022/07/23 06:57:22;;;;;;;11.50;8.85;;;;;;;22.94;49.69;95220.38;5117701;28;20196;-67
2022/07/23 06:59:48;;;;;;;14.63;13.07;;;;;;;22.97;49.64;95219.53;5117119;28;20187;-67
2022/07/23 07:02:15;;;;;;;13.05;10.68;;;;;;;22.99;49.81;95215.06;5117914;28;20192;-67
2022/07/23 07:04:42;;;;;;;10.80;9.70;;;;;;;23.02;49.87;95210.56;5117569;28;20187;-67
2022/07/23 07:07:11;;;;;;;10.70;9.15;;;;;;;23.05;49.44;95216.13;5116779;28;20200;-67
2022/07/23 07:09:38;;;;;;;10.32;9.23;;;;;;;23.12;49.80;95215.22;5116973;28;20192;-67
2022/07/23 07:12:06;;;;;;;9.77;8.50;;;;;;;23.17;49.15;95216.75;5117411;28;20187;-67
2022/07/23 07:14:32;;;;;;;9.57;8.75;;;;;;;23.22;48.57;95211.41;5116746;28;20219;-67
2022/07/23 07:16:59;;;;;;;9.23;8.32;;;;;;;23.28;48.49;95217.34;5117618;28;20188;-67
2022/07/23 07:19:26;;;;;;;10.38;8.90;;;;;;;23.29;48.12;95202.81;5117079;28;20194;-67
2022/07/23 07:21:53;;;;;;;11.57;9.98;;;;;;;23.33;48.48;95208.38;5116721;28;20199;-68
2022/07/23 07:24:21;;;;;;;9.52;8.18;;;;;;;23.41;48.43;95200.59;5116823;28;20511;-67
2022/07/23 07:26:48;;;;;;;8.57;7.85;;;;;;;23.45;48.03;95195.66;5116426;28;20237;-67
2022/07/23 07:29:15;;;;;;;10.50;8.60;;;;;;;23.50;47.76;95195.19;5116421;28;20210;-67
2022/07/23 07:31:42;;;;;;;7.97;7.28;;;;;;;23.55;47.16;95189.81;5116530;28;20192;-67
2022/07/23 07:34:09;;;;;;;9.10;8.27;;;;;;;23.59;47.25;95186.13;5117154;28;20265;-67
2022/07/23 07:36:36;;;;;;;9.40;8.50;;;;;;;23.62;47.60;95193.72;5117283;28;20215;-67
2022/07/23 07:39:04;;;;;;;8.35;7.75;;;;;;;23.69;47.45;95190.78;5117147;28;20184;-67
2022/07/23 07:41:32;;;;;;;9.00;8.25;;;;;;;23.74;46.86;95196.69;5116776;28;20531;-67
2022/07/23 07:43:59;;;;;;;9.23;8.23;;;;;;;23.81;46.31;95189.31;5116361;28;20213;-67
2022/07/23 07:46:27;;;;;;;10.48;8.35;;;;;;;23.83;46.85;95193.28;5116995;28;20215;-67
2022/07/23 07:48:54;;;;;;;9.52;8.07;;;;;;;23.91;46.96;95182.66;5099362;28;20192;-67
2022/07/23 07:51:20;;;;;;;9.10;8.30;;;;;;;23.97;46.87;95190.16;5116653;28;20264;-67
2022/07/23 07:53:47;;;;;;;10.70;8.52;;;;;;;24.06;46.75;95183.91;5116780;28;20214;-67
2022/07/23 07:56:14;;;;;;;10.13;8.30;;;;;;;24.12;47.25;95178.56;5115855;28;20252;-67
2022/07/23 07:58:43;;;;;;;9.38;8.40;;;;;;;24.19;46.95;95176.34;5116530;28;20260;-67
2022/07/23 08:01:09;;;;;;;10.07;9.18;;;;;;;24.31;46.32;95183.31;5116757;28;20257;-67
2022/07/23 08:03:36;;;;;;;9.23;8.32;;;;;;;24.35;46.14;95181.19;5116315;28;20196;-67
2022/07/23 08:06:03;;;;;;;10.75;9.13;;;;;;;24.39;47.15;95181.09;5116337;28;20188;-67
2022/07/23 08:08:30;;;;;;;11.30;9.98;;;;;;;24.44;47.19;95181.41;5116609;28;20179;-67
2022/07/23 08:10:56;;;;;;;10.57;8.95;;;;;;;24.52;47.15;95178.41;5116160;28;20180;-67
2022/07/23 08:13:23;;;;;;;10.02;8.95;;;;;;;24.62;46.95;95171.69;5116040;28;20192;-67
2022/07/23 08:15:52;;;;;;;11.07;8.80;;;;;;;24.86;46.51;95178.72;5116347;28;20211;-67
2022/07/23 08:18:19;;;;;;;11.02;8.85;;;;;;;25.00;45.89;95166.25;5116260;28;20195;-67
2022/07/23 08:20:46;;;;;;;12.23;9.38;;;;;;;25.08;45.94;95172.50;5116112;28;20211;-67
2022/07/23 08:23:13;;;;;;;10.88;9.25;;;;;;;25.16;45.91;95171.09;5116297;28;20195;-67
2022/07/23 08:25:41;;;;;;;10.13;9.13;;;;;;;25.19;46.82;95164.56;5114884;28;20204;-67
2022/07/23 08:28:09;;;;;;;9.90;8.82;;;;;;;25.21;46.57;95167.72;5116188;28;20191;-67
2022/07/23 08:30:37;;;;;;;12.23;9.18;;;;;;;25.42;45.38;95163.50;5114623;28;20198;-67
2022/07/23 08:33:07;;;;;;;9.80;8.77;;;;;;;25.67;44.54;95168.41;5115195;28;20196;-67
2022/07/23 08:35:35;;;;;;;9.30;8.50;;;;;;;25.69;44.64;95157.47;5116000;28;20211;-67
2022/07/23 08:38:05;;;;;;;9.75;8.70;;;;;;;25.74;44.58;95165.34;5115930;28;20191;-67
2022/07/23 08:40:33;;;;;;;10.02;9.02;;;;;;;25.80;45.57;95160.78;5114854;28;20545;-67
2022/07/23 08:43:00;;;;;;;9.32;8.57;;;;;;;26.01;44.15;95167.81;5115653;28;20649;-67
2022/07/23 08:45:28;;;;;;;9.43;8.52;;;;;;;26.07;44.42;95163.19;5115729;28;20198;-67
2022/07/23 08:47:56;;;;;;;12.48;8.90;;;;;;;26.07;44.47;95162.38;5116002;28;20180;-67
2022/07/23 08:50:24;;;;;;;8.85;8.07;;;;;;;26.32;43.85;95162.34;5115908;28;20188;-67
2022/07/23 08:52:52;;;;;;;9.23;8.32;;;;;;;26.48;43.26;95157.88;5114656;28;20211;-67
2022/07/23 08:55:19;;;;;;;11.32;8.90;;;;;;;26.52;44.03;95155.69;5114524;28;20234;-67
2022/07/23 08:57:48;;;;;;;9.18;8.35;;;;;;;26.67;44.64;95156.00;5115874;28;20184;-67
2022/07/23 09:00:16;;;;;;;9.55;8.45;;;;;;;26.81;42.65;95149.88;5114982;28;20265;-67
2022/07/23 09:02:45;;;;;;;13.32;8.48;;;;;;;26.98;42.33;95147.63;5115824;28;20187;-68
2022/07/23 09:05:12;;;;;;;9.98;7.95;;;;;;;27.10;42.11;95144.78;5115747;28;20188;-68
2022/07/23 09:08:07;;;;;;;9.65;7.47;;;;;;;27.16;41.56;95142.16;5114723;28;20191;-68
2022/07/23 09:10:44;;;;;;;10.00;8.30;;;;;;;27.22;43.85;95145.97;5114806;28;20196;-68
2022/07/23 09:13:24;;;;;;;9.55;8.23;;;;;;;27.32;42.99;95146.84;5115574;28;20183;-68
2022/07/23 09:15:51;;;;;;;9.65;8.25;;;;;;;27.53;42.14;95148.09;5115052;28;20222;-67
2022/07/23 09:18:18;;;;;;;8.88;8.10;;;;;;;27.68;40.96;95142.69;5114863;28;20203;-67
2022/07/23 09:20:45;;;;;;;10.27;8.13;;;;;;;27.71;42.03;95136.88;5114610;28;20203;-67
2022/07/23 09:23:13;;;;;;;8.77;7.93;;;;;;;27.70;41.26;95140.16;5115505;28;20187;-67
2022/07/23 09:25:40;;;;;;;9.57;8.57;;;;;;;27.84;41.65;95145.31;5115484;28;20184;-67
2022/07/23 09:28:07;;;;;;;9.05;8.15;;;;;;;27.93;40.42;95139.69;5115468;28;20196;-67
2022/07/23 09:30:35;;;;;;;9.45;7.35;;;;;;;28.07;41.17;95139.13;5114713;28;20260;-67
2022/07/23 09:33:06;;;;;;;8.77;7.88;;;;;;;28.26;39.17;95136.38;5114449;28;20192;-67
2022/07/23 09:35:47;;;;;;;8.38;7.65;;;;;;;28.33;40.40;95135.28;5114972;28;20211;-67
2022/07/23 09:38:16;;;;;;;10.85;7.78;;;;;;;28.38;38.11;95129.03;5115099;28;20608;-67
2022/07/23 09:40:43;;;;;;;10.02;6.82;;;;;;;28.47;36.26;95129.03;5115581;28;20600;-67
2022/07/23 09:43:10;;;;;;;7.75;6.85;;;;;;;28.67;35.76;95120.88;5119454;28;20179;-67
2022/07/23 09:45:39;;;;;;;7.88;6.97;;;;;;;28.88;34.85;95119.19;5119619;28;20207;-67
2022/07/23 09:48:12;;;;;;;9.05;6.38;;;;;;;28.94;34.71;95117.31;5118234;28;20188;-67
2022/07/23 09:50:39;;;;;;;7.30;6.50;;;;;;;29.01;33.35;95119.06;5119298;28;20245;-67
2022/07/23 09:53:06;;;;;;;9.77;6.72;;;;;;;29.10;33.62;95110.53;5119239;28;20199;-67
2022/07/23 09:55:36;;;;;;;7.72;7.03;;;;;;;29.24;34.00;95109.13;5118285;28;20257;-67
2022/07/23 09:58:04;;;;;;;7.93;6.40;;;;;;;29.32;33.79;95109.59;5119263;28;20188;-67
2022/07/23 10:00:32;;;;;;;11.98;7.28;;;;;;;29.37;33.60;95108.94;5119251;28;20184;-67
2022/07/23 10:02:59;;;;;;;7.60;6.80;;;;;;;29.36;32.24;95107.38;5118999;28;20211;-67
2022/07/23 10:05:26;;;;;;;8.00;6.97;;;;;;;29.37;33.45;95103.25;5118379;28;20202;-67
2022/07/23 10:07:53;;;;;;;7.93;7.13;;;;;;;29.46;33.90;95103.25;5119024;28;20199;-67
2022/07/23 10:10:21;;;;;;;7.30;6.60;;;;;;;29.59;33.35;95105.94;5118205;28;20192;-67
2022/07/23 10:15:42;;;;;;;7.70;6.95;;;;;;;29.89;32.39;95093.53;5118301;28;20219;-67
2022/07/23 10:18:11;;;;;;;9.98;6.82;;;;;;;29.95;29.94;95099.34;5118537;28;20203;-68
2022/07/23 10:20:38;;;;;;;9.25;7.00;;;;;;;29.96;29.39;95092.41;5118740;28;20187;-67
2022/07/23 10:23:12;;;;;;;7.88;5.82;;;;;;;30.00;30.15;95087.34;5117772;28;20195;-68
2022/07/23 10:25:43;;;;;;;8.65;6.63;;;;;;;29.97;28.67;95091.13;5118362;28;20180;-68
2022/07/23 10:28:32;;;;;;;6.47;5.78;;;;;;;30.03;29.63;95086.38;5118622;28;20199;-68
2022/07/23 10:31:03;;;;;;;7.57;6.15;;;;;;;30.14;28.90;95082.97;5117598;28;20192;-68
2022/07/23 10:33:38;;;;;;;7.35;6.38;;;;;;;30.36;28.64;95082.78;5117554;28;20200;-68
2022/07/23 10:36:09;;;;;;;10.60;6.47;;;;;;;30.50;28.75;95079.19;5117590;28;20223;-67
2022/07/23 10:38:39;;;;;;;8.45;5.97;;;;;;;30.52;28.76;95079.50;5117552;28;20199;-67
2022/07/23 10:41:06;;;;;;;7.28;6.43;;;;;;;30.53;29.34;95086.75;5118323;28;20195;-68
2022/07/23 10:43:34;;;;;;;7.15;6.03;;;;;;;30.51;28.32;95077.16;5118499;28;20180;-68
2022/07/23 10:46:22;;;;;;;5.78;5.20;;;;;;;30.47;27.07;95077.31;5118266;28;20184;-67
2022/07/23 10:49:22;;;;;;;7.50;5.80;;;;;;;30.50;27.49;95067.78;5118095;28;20188;-67
2022/07/23 10:52:23;;;;;;;7.43;5.60;;;;;;;30.68;26.52;95064.84;5116853;28;20223;-67
2022/07/23 10:54:51;;;;;;;7.15;5.72;;;;;;;30.85;27.43;95064.44;5116591;28;20246;-68
2022/07/23 10:57:19;;;;;;;6.88;5.88;;;;;;;30.86;28.51;95058.25;5117741;28;20520;-67
2022/07/23 11:00:24;;;;;;;7.22;5.30;;;;;;;30.84;25.88;95057.94;5117195;28;20203;-68
2022/07/23 11:02:54;;;;;;;8.93;5.53;;;;;;;30.89;25.89;95047.94;5108338;28;20579;-67
2022/07/23 11:05:22;;;;;;;9.27;5.90;;;;;;;30.93;24.06;95046.47;5118035;28;20210;-67
2022/07/23 11:08:19;;;;;;;9.23;6.22;;;;;;;30.96;25.95;95050.41;5116552;28;20616;-67
2022/07/23 11:10:51;;;;;;;9.63;5.38;;;;;;;30.97;23.83;95043.44;5116556;28;20192;-67
2022/07/23 11:13:36;;;;;;;9.10;5.43;;;;;;;31.02;25.17;95039.94;5116947;28;20203;-67
2022/07/23 11:16:10;;;;;;;8.00;4.57;;;;;;;31.00;24.12;95036.00;5116791;28;20558;-68
2022/07/23 11:19:07;;;;;;;7.65;5.05;;;;;;;30.96;25.62;95038.25;5117309;28;20195;-67
2022/07/23 11:21:45;;;;;;;6.53;5.28;;;;;;;30.99;24.85;95038.06;5117692;28;20657;-67
2022/07/23 11:24:14;;;;;;;7.80;5.28;;;;;;;31.07;25.64;95027.06;5099650;28;20199;-67
2022/07/23 11:26:46;;;;;;;7.82;5.60;;;;;;;31.05;23.57;95030.41;5116661;28;20248;-67
2022/07/23 11:29:47;;;;;;;7.55;4.72;;;;;;;31.26;21.80;95024.81;5117364;28;20192;-67
2022/07/23 11:32:38;;;;;;;8.30;4.80;;;;;;;31.39;22.41;95023.28;5116822;28;20535;-71
2022/07/23 11:35:20;;;;;;;5.82;4.18;;;;;;;31.52;18.96;95017.31;5114323;28;20309;-70
2022/07/23 11:37:47;;;;;;;12.15;5.80;;;;;;;31.58;22.04;95015.31;5117655;28;20211;-70
2022/07/23 11:40:16;;;;;;;9.13;4.82;;;;;;;31.68;21.49;95012.38;5116352;28;20264;-70